createdAt,value
2022-10-26T00:01:10.001Z,71.17
2022-10-26T00:03:40.210Z,71.18
2022-10-26T00:06:10.742Z,71.18
2022-10-26T00:08:38.152Z,71.18
2022-10-26T00:11:05.882Z,71.25
2022-10-26T00:13:33.535Z,71.24
2022-10-26T00:18:32.619Z,71.17
2022-10-26T00:21:07.822Z,71.18
2022-10-26T00:23:34.846Z,71.20
2022-10-26T00:26:03.250Z,71.26
2022-10-26T00:28:30.470Z,71.28
2022-10-26T00:31:12.351Z,71.29
2022-10-26T00:33:39.331Z,71.29
2022-10-26T00:36:08.778Z,71.30
2022-10-26T00:38:35.911Z,71.34
2022-10-26T00:41:03.240Z,71.26
2022-10-26T00:43:29.934Z,71.21
2022-10-26T00:45:58.683Z,71.28
2022-10-26T00:48:29.525Z,71.25
2022-10-26T00:51:00.373Z,71.29
2022-10-26T00:53:28.628Z,71.31
2022-10-26T00:55:56.144Z,71.36
2022-10-26T00:58:25.523Z,71.35
2022-10-26T01:00:52.732Z,71.22
2022-10-26T01:03:20.403Z,71.34
2022-10-26T01:05:48.996Z,71.32
2022-10-26T01:08:17.658Z,71.41
2022-10-26T01:10:44.947Z,71.40
2022-10-26T01:13:13.831Z,71.28
2022-10-26T01:16:21.287Z,71.30
2022-10-26T01:19:38.620Z,71.30
2022-10-26T01:22:21.852Z,71.39
2022-10-26T01:25:02.520Z,71.35
2022-10-26T01:27:41.044Z,71.24
2022-10-26T01:30:37.308Z,71.31
2022-10-26T01:33:13.329Z,71.24
2022-10-26T01:35:53.442Z,71.31
2022-10-26T01:38:24.207Z,71.32
2022-10-26T01:41:17.810Z,71.33
2022-10-26T01:43:58.110Z,71.30
2022-10-26T01:46:28.609Z,71.41
2022-10-26T01:49:01.160Z,71.37
2022-10-26T01:51:29.618Z,71.45
2022-10-26T01:53:57.754Z,71.54
2022-10-26T01:56:31.670Z,71.39
2022-10-26T01:59:21.974Z,71.41
2022-10-26T02:01:50.369Z,71.53
2022-10-26T02:04:41.352Z,71.43
2022-10-26T02:07:29.973Z,71.33
2022-10-26T02:10:05.776Z,71.32
2022-10-26T02:12:59.265Z,71.54
2022-10-26T02:15:45.687Z,71.59
2022-10-26T02:18:30.486Z,71.49
2022-10-26T02:21:03.569Z,71.41
2022-10-26T02:23:34.304Z,71.51
2022-10-26T02:26:05.004Z,71.58
2022-10-26T02:28:38.508Z,71.49
2022-10-26T02:31:07.094Z,71.56
2022-10-26T02:33:39.417Z,71.59
2022-10-26T02:36:08.462Z,71.50
2022-10-26T02:38:38.841Z,71.47
2022-10-26T02:41:07.132Z,71.54
2022-10-26T02:43:41.467Z,71.61
2022-10-26T02:46:13.178Z,71.51
2022-10-26T02:48:40.442Z,71.58
2022-10-26T02:51:41.763Z,71.61
2022-10-26T02:54:46.724Z,71.59
2022-10-26T02:57:23.059Z,71.62
2022-10-26T02:59:50.583Z,71.54
2022-10-26T03:02:19.739Z,71.57
2022-10-26T03:04:49.676Z,71.57
2022-10-26T03:07:23.814Z,71.58
2022-10-26T03:09:50.939Z,71.60
2022-10-26T03:12:17.774Z,71.49
2022-10-26T03:14:44.935Z,71.52
2022-10-26T03:17:11.756Z,71.71
2022-10-26T03:19:38.706Z,71.63
2022-10-26T03:22:05.498Z,71.57
2022-10-26T03:24:32.403Z,71.64
2022-10-26T03:27:02.043Z,71.76
2022-10-26T03:29:29.425Z,71.78
2022-10-26T03:31:56.309Z,71.70
2022-10-26T03:34:23.141Z,71.56
2022-10-26T03:36:49.855Z,71.66
2022-10-26T03:39:17.034Z,71.65
2022-10-26T03:41:44.148Z,71.71
2022-10-26T03:44:11.102Z,71.76
2022-10-26T03:46:37.931Z,71.73
2022-10-26T03:49:04.838Z,71.63
2022-10-26T03:51:31.618Z,71.71
2022-10-26T03:53:58.351Z,71.80
2022-10-26T03:56:25.434Z,71.76
2022-10-26T03:58:52.380Z,71.74
2022-10-26T04:01:19.278Z,71.72
2022-10-26T04:03:46.348Z,71.82
2022-10-26T04:06:13.363Z,71.84
2022-10-26T04:08:40.122Z,71.86
2022-10-26T04:11:06.891Z,71.79
2022-10-26T04:13:33.794Z,71.71
2022-10-26T04:16:00.676Z,71.74
2022-10-26T04:18:27.504Z,71.76
2022-10-26T04:20:54.276Z,71.87
2022-10-26T04:23:21.585Z,71.74
2022-10-26T04:25:48.462Z,71.77
2022-10-26T04:28:15.281Z,71.74
2022-10-26T04:30:42.185Z,71.70
2022-10-26T04:33:09.552Z,71.65
2022-10-26T04:35:36.344Z,71.73
2022-10-26T04:38:05.663Z,71.81
2022-10-26T04:40:34.123Z,71.75
2022-10-26T04:43:01.241Z,71.75
2022-10-26T04:45:30.131Z,71.71
2022-10-26T04:48:05.113Z,71.77
2022-10-26T04:50:32.512Z,71.70
2022-10-26T04:53:00.059Z,71.75
2022-10-26T04:55:26.897Z,71.89
2022-10-26T04:57:55.971Z,71.79
2022-10-26T05:00:26.091Z,71.88
2022-10-26T05:03:07.843Z,71.92
2022-10-26T05:05:36.693Z,71.91
2022-10-26T05:08:03.816Z,71.97
2022-10-26T05:10:30.766Z,72.06
2022-10-26T05:12:59.563Z,72.05
2022-10-26T05:15:27.813Z,72.05
2022-10-26T05:18:02.855Z,72.10
2022-10-26T05:20:31.854Z,72.15
2022-10-26T05:23:01.155Z,72.17
2022-10-26T05:25:31.091Z,72.14
2022-10-26T05:28:03.542Z,72.23
2022-10-26T05:30:31.468Z,72.28
2022-10-26T05:33:02.464Z,72.32
2022-10-26T05:35:29.710Z,72.33
2022-10-26T05:37:56.710Z,72.38
2022-10-26T05:40:24.054Z,72.36
2022-10-26T05:42:51.840Z,72.30
2022-10-26T05:45:18.956Z,72.30
2022-10-26T05:47:46.013Z,72.37
2022-10-26T05:50:13.642Z,72.41
2022-10-26T05:52:42.533Z,72.41
2022-10-26T05:55:10.945Z,72.44
2022-10-26T05:57:38.262Z,72.43
2022-10-26T06:00:14.602Z,72.39
2022-10-26T06:02:49.271Z,72.51
2022-10-26T06:05:23.285Z,72.49
2022-10-26T06:07:50.740Z,72.46
2022-10-26T06:10:18.486Z,72.48
2022-10-26T06:33:47.063Z,72.40
2022-10-26T06:36:23.321Z,72.28
2022-10-26T06:38:56.901Z,72.24
2022-10-26T06:41:26.393Z,72.32
2022-10-26T06:43:54.805Z,72.41
2022-10-26T06:46:44.990Z,72.34
2022-10-26T06:49:28.460Z,72.38
2022-10-26T06:52:10.269Z,72.46
2022-10-26T06:54:49.666Z,72.45
2022-10-26T06:57:20.414Z,72.55
2022-10-26T06:59:53.195Z,72.46
2022-10-26T07:02:22.030Z,72.54
2022-10-26T07:04:50.425Z,72.47
2022-10-26T07:07:21.313Z,72.59
2022-10-26T07:09:50.407Z,72.59
2022-10-26T07:12:18.923Z,72.56
2022-10-26T07:14:47.111Z,72.48
2022-10-26T07:17:15.325Z,72.46
2022-10-26T07:19:44.942Z,72.44
2022-10-26T07:22:13.319Z,72.50
2022-10-26T07:24:41.434Z,72.51
2022-10-26T07:27:09.623Z,72.44
2022-10-26T07:29:37.995Z,72.57
2022-10-26T07:32:06.400Z,72.60
2022-10-26T07:34:34.673Z,72.49
2022-10-26T07:37:03.476Z,72.47
2022-10-26T07:39:32.957Z,72.46
2022-10-26T07:42:01.272Z,72.49
2022-10-26T07:44:29.532Z,72.54
2022-10-26T07:46:58.408Z,72.39
2022-10-26T07:49:27.923Z,72.36
2022-10-26T07:51:56.394Z,72.38
2022-10-26T07:54:24.794Z,72.34
2022-10-26T07:56:53.217Z,72.33
2022-10-26T07:59:21.381Z,72.25
2022-10-26T08:01:49.711Z,72.17
2022-10-26T08:04:18.042Z,72.18
2022-10-26T08:06:47.439Z,72.26
2022-10-26T08:09:15.689Z,72.09
2022-10-26T08:11:43.996Z,72.07
2022-10-26T08:14:12.894Z,72.09
2022-10-26T08:16:41.166Z,72.12
2022-10-26T08:19:09.824Z,72.08
2022-10-26T08:21:40.918Z,72.01
2022-10-26T08:24:09.319Z,72.00
2022-10-26T08:26:37.758Z,71.87
2022-10-26T08:29:05.922Z,71.88
2022-10-26T08:31:34.193Z,71.56
2022-10-26T08:34:04.164Z,71.51
2022-10-26T08:36:32.461Z,71.50
2022-10-26T08:39:04.086Z,71.44
2022-10-26T08:41:47.833Z,71.40
2022-10-26T08:44:26.166Z,71.17
2022-10-26T08:47:11.353Z,71.19
2022-10-26T08:49:47.385Z,71.06
2022-10-26T08:52:22.799Z,70.96
2022-10-26T08:54:54.643Z,71.05
2022-10-26T08:57:38.759Z,70.85
2022-10-26T09:00:17.579Z,70.76
2022-10-26T09:02:49.990Z,70.72
2022-10-26T09:05:23.700Z,70.65
2022-10-26T09:08:07.059Z,70.50
2022-10-26T09:10:41.467Z,70.31
2022-10-26T09:13:42.860Z,69.93
2022-10-26T09:16:23.507Z,70.00
2022-10-26T09:19:35.570Z,69.87
2022-10-26T09:22:31.861Z,69.59
2022-10-26T09:25:12.772Z,69.54
2022-10-26T09:27:47.823Z,69.38
2022-10-26T09:30:20.579Z,69.53
2022-10-26T09:32:52.763Z,69.45
2022-10-26T09:35:31.616Z,69.53
2022-10-26T09:38:09.970Z,69.25
2022-10-26T09:40:47.641Z,69.21
2022-10-26T09:43:30.647Z,69.18
2022-10-26T09:45:58.987Z,69.16
2022-10-26T09:48:41.584Z,68.89
2022-10-26T09:51:11.321Z,68.69
2022-10-26T09:53:39.613Z,68.48
2022-10-26T09:56:11.877Z,68.52
2022-10-26T09:59:05.368Z,68.08
2022-10-26T10:01:38.494Z,67.73
2022-10-26T10:04:13.632Z,67.73
2022-10-26T10:06:43.379Z,67.65
2022-10-26T10:09:15.960Z,67.27
2022-10-26T10:11:58.004Z,66.86
2022-10-26T10:14:39.664Z,66.67
2022-10-26T10:17:23.272Z,66.70
2022-10-26T10:19:52.739Z,66.38
2022-10-26T10:22:25.578Z,66.65
2022-10-26T10:25:00.113Z,65.99
2022-10-26T10:27:30.314Z,65.52
2022-10-26T10:30:07.206Z,65.63
2022-10-26T10:32:38.958Z,65.12
2022-10-26T10:35:24.653Z,65.10
2022-10-26T10:37:53.195Z,64.97
2022-10-26T10:40:24.708Z,64.85
2022-10-26T10:43:03.269Z,64.40
2022-10-26T10:45:32.761Z,64.05
2022-10-26T10:48:13.340Z,63.97
2022-10-26T10:51:01.137Z,63.65
2022-10-26T10:53:44.694Z,63.74
2022-10-26T10:56:28.383Z,63.81
2022-10-26T10:59:19.241Z,63.55
2022-10-26T11:02:29.489Z,63.57
2022-10-26T11:05:13.337Z,63.29
2022-10-26T11:07:52.925Z,63.37
2022-10-26T11:10:26.879Z,63.55
2022-10-26T11:12:59.873Z,63.47
2022-10-26T11:15:32.870Z,63.62
2022-10-26T11:18:13.870Z,63.55
2022-10-26T11:21:38.177Z,63.39
2022-10-26T11:24:22.637Z,63.36
2022-10-26T11:26:54.341Z,63.24
2022-10-26T11:29:48.643Z,63.16
2022-10-26T11:32:22.869Z,63.25
2022-10-26T11:35:00.736Z,63.08
2022-10-26T11:37:51.450Z,63.24
2022-10-26T11:40:44.844Z,63.08
2022-10-26T11:43:31.312Z,63.25
2022-10-26T11:46:24.418Z,62.96
2022-10-26T11:49:07.300Z,63.01
2022-10-26T11:51:41.696Z,63.01
2022-10-26T11:54:26.142Z,62.72
2022-10-26T11:56:57.116Z,62.80
2022-10-26T11:59:37.968Z,62.90
2022-10-26T12:02:15.498Z,63.02
2022-10-26T12:04:47.729Z,62.41
2022-10-26T12:07:26.683Z,62.37
2022-10-26T12:09:57.826Z,62.48
2022-10-26T12:12:37.449Z,62.44
2022-10-26T12:15:35.546Z,62.51
2022-10-26T12:18:43.202Z,62.64
2022-10-26T12:21:15.703Z,62.57
2022-10-26T12:23:59.514Z,62.60
2022-10-26T12:26:27.704Z,62.62
2022-10-26T12:29:02.545Z,62.62
2022-10-26T12:31:37.043Z,62.51
2022-10-26T12:34:12.371Z,62.61
2022-10-26T12:36:56.628Z,62.63
2022-10-26T12:39:35.757Z,62.81
2022-10-26T12:42:10.012Z,62.78
2022-10-26T12:44:41.468Z,62.18
2022-10-26T12:47:30.522Z,62.20
2022-10-26T12:50:05.765Z,62.18
2022-10-26T12:52:45.602Z,61.20
2022-10-26T12:55:20.349Z,60.66
2022-10-26T12:58:07.684Z,60.41
2022-10-26T13:00:42.732Z,60.01
2022-10-26T13:03:39.623Z,59.34
2022-10-26T13:06:17.442Z,58.56
2022-10-26T13:08:49.303Z,57.92
2022-10-26T13:11:23.316Z,57.69
2022-10-26T13:13:57.419Z,57.02
2022-10-26T13:16:28.335Z,56.02
2022-10-26T13:18:57.436Z,54.96
2022-10-26T13:21:26.841Z,53.86
2022-10-26T13:23:55.863Z,52.88
2022-10-26T13:26:26.569Z,52.14
2022-10-26T13:28:57.439Z,50.80
2022-10-26T13:31:28.771Z,49.96
2022-10-26T13:34:01.668Z,49.14
2022-10-26T13:36:45.671Z,48.58
2022-10-26T13:39:20.725Z,47.57
2022-10-26T13:41:52.583Z,47.13
2022-10-26T13:44:27.826Z,46.59
2022-10-26T13:47:02.477Z,46.38
2022-10-26T13:49:39.402Z,46.47
2022-10-26T13:52:19.124Z,46.62
2022-10-26T13:54:59.256Z,46.57
2022-10-26T13:57:43.867Z,46.74
2022-10-26T14:00:23.829Z,47.24
2022-10-26T14:02:52.357Z,47.68
2022-10-26T14:05:22.223Z,47.89
2022-10-26T14:07:56.858Z,48.01
2022-10-26T14:10:38.918Z,48.37
2022-10-26T14:13:08.920Z,48.81
2022-10-26T14:15:37.248Z,49.24
2022-10-26T14:18:05.485Z,49.32
2022-10-26T14:20:33.909Z,49.57
2022-10-26T14:23:02.107Z,49.81
2022-10-26T14:25:42.400Z,50.50
2022-10-26T14:28:28.910Z,50.83
2022-10-26T14:31:25.464Z,50.99
2022-10-26T14:33:54.925Z,51.37
2022-10-26T14:36:34.311Z,51.55
2022-10-26T14:39:07.932Z,51.86
2022-10-26T14:41:36.584Z,52.15
2022-10-26T14:44:04.971Z,52.43
2022-10-26T14:46:35.848Z,52.63
2022-10-26T14:49:04.915Z,53.12
2022-10-26T14:51:36.437Z,53.28
2022-10-26T14:54:05.043Z,53.35
2022-10-26T14:56:36.548Z,53.66
2022-10-26T14:59:24.571Z,54.09
2022-10-26T15:02:02.437Z,54.39
2022-10-26T15:04:36.660Z,54.62
2022-10-26T15:07:18.811Z,54.87
2022-10-26T15:09:49.366Z,55.10
2022-10-26T15:12:23.611Z,55.38
2022-10-26T15:14:52.588Z,55.48
2022-10-26T15:17:24.645Z,55.74
2022-10-26T15:19:53.954Z,55.94
2022-10-26T15:22:31.147Z,56.00
2022-10-26T15:25:04.745Z,56.28
2022-10-26T15:27:33.156Z,56.34
2022-10-26T15:30:37.242Z,56.50
2022-10-26T15:33:22.234Z,56.73
2022-10-26T15:35:50.706Z,56.87
2022-10-26T15:38:19.032Z,57.12
2022-10-26T15:40:47.085Z,57.35
2022-10-26T15:43:15.451Z,57.39
2022-10-26T15:45:52.171Z,57.49
2022-10-26T15:48:29.315Z,57.75
2022-10-26T15:50:58.394Z,57.79
2022-10-26T15:53:27.674Z,57.99
2022-10-26T15:55:58.916Z,58.07
2022-10-26T15:58:29.833Z,58.32
2022-10-26T16:00:57.933Z,58.42
2022-10-26T16:03:27.390Z,58.53
2022-10-26T16:05:58.790Z,58.68
2022-10-26T16:08:30.120Z,58.87
2022-10-26T16:10:58.826Z,59.05
2022-10-26T16:13:26.945Z,58.97
2022-10-26T16:15:55.312Z,59.07
2022-10-26T16:18:23.662Z,59.43
2022-10-26T16:20:51.777Z,59.54
2022-10-26T16:23:19.899Z,59.66
2022-10-26T16:25:48.051Z,59.70
2022-10-26T16:28:17.351Z,59.84
2022-10-26T16:30:45.842Z,59.93
2022-10-26T16:33:14.252Z,60.01
2022-10-26T16:35:42.356Z,60.13
2022-10-26T16:38:10.597Z,60.38
2022-10-26T16:40:42.746Z,60.44
2022-10-26T16:43:11.136Z,60.65
2022-10-26T16:45:41.848Z,60.80
2022-10-26T16:48:15.359Z,60.84
2022-10-26T16:50:43.610Z,60.96
2022-10-26T16:53:12.000Z,61.02
2022-10-26T16:55:40.344Z,61.23
2022-10-26T16:58:08.584Z,61.22
2022-10-26T17:00:37.832Z,61.32
2022-10-26T17:03:06.024Z,61.38
2022-10-26T17:05:34.381Z,61.56
2022-10-26T17:08:02.600Z,61.58
2022-10-26T17:10:30.716Z,61.75
2022-10-26T17:12:58.990Z,61.83
2022-10-26T17:15:29.020Z,61.92
2022-10-26T17:17:57.467Z,62.01
2022-10-26T17:20:25.900Z,62.18
2022-10-26T17:22:55.380Z,62.12
2022-10-26T17:25:23.581Z,62.16
2022-10-26T17:27:51.753Z,62.28
2022-10-26T17:30:19.911Z,62.38
2022-10-26T17:32:48.461Z,62.48
2022-10-26T17:35:17.035Z,62.62
2022-10-26T17:37:45.430Z,62.67
2022-10-26T17:40:13.953Z,62.80
2022-10-26T17:42:42.127Z,62.76
2022-10-26T17:45:10.677Z,62.76
2022-10-26T17:47:38.952Z,62.97
2022-10-26T17:50:08.135Z,63.05
2022-10-26T17:52:36.360Z,63.06
2022-10-26T17:55:05.072Z,63.06
2022-10-26T17:57:34.157Z,63.20
2022-10-26T18:00:03.924Z,63.23
2022-10-26T18:02:40.906Z,63.38
2022-10-26T18:05:09.634Z,63.41
2022-10-26T18:07:37.869Z,63.42
2022-10-26T18:10:13.822Z,63.50
2022-10-26T18:12:54.768Z,63.63
2022-10-26T18:15:24.029Z,63.62
2022-10-26T18:17:55.548Z,63.63
2022-10-26T18:20:28.330Z,63.70
2022-10-26T18:22:57.136Z,63.76
2022-10-26T18:25:26.209Z,63.91
2022-10-26T18:27:55.913Z,63.96
2022-10-26T18:30:24.834Z,64.07
2022-10-26T18:32:53.788Z,64.07
2022-10-26T18:35:23.615Z,64.13
2022-10-26T18:37:52.088Z,64.27
2022-10-26T18:40:20.501Z,64.38
2022-10-26T18:42:49.080Z,64.47
2022-10-26T18:45:17.537Z,64.56
2022-10-26T18:47:45.678Z,64.56
2022-10-26T18:50:13.953Z,64.55
2022-10-26T18:52:42.179Z,64.61
2022-10-26T18:55:10.334Z,64.64
2022-10-26T18:57:39.946Z,64.67
2022-10-26T19:00:08.884Z,64.72
2022-10-26T19:02:37.234Z,64.86
2022-10-26T19:05:06.412Z,64.94
2022-10-26T19:07:34.526Z,64.93
2022-10-26T19:10:02.968Z,65.05
2022-10-26T19:12:31.680Z,65.09
2022-10-26T19:14:59.787Z,65.11
2022-10-26T19:17:28.178Z,65.21
2022-10-26T19:19:57.100Z,65.34
2022-10-26T19:22:25.190Z,65.33
2022-10-26T19:24:53.453Z,65.47
2022-10-26T19:27:22.136Z,65.43
2022-10-26T19:29:50.216Z,65.52
2022-10-26T19:32:18.383Z,65.50
2022-10-26T19:34:47.125Z,65.55
2022-10-26T19:37:15.384Z,65.52
2022-10-26T19:39:43.574Z,65.57
2022-10-26T19:42:11.876Z,65.60
2022-10-26T19:44:39.986Z,65.72
2022-10-26T19:47:08.241Z,65.79
2022-10-26T19:49:36.451Z,65.85
2022-10-26T19:52:04.900Z,65.91
2022-10-26T19:54:33.353Z,66.02
2022-10-26T19:57:01.850Z,66.15
2022-10-26T19:59:30.024Z,66.18
2022-10-26T20:02:00.381Z,66.29
2022-10-26T20:04:28.681Z,66.28
2022-10-26T20:06:56.844Z,66.40
2022-10-26T20:09:25.158Z,66.39
2022-10-26T20:11:53.552Z,66.46
2022-10-26T20:14:21.714Z,66.49
2022-10-26T20:16:49.857Z,66.65
2022-10-26T20:19:18.498Z,66.82
2022-10-26T20:21:46.848Z,66.82
2022-10-26T20:24:14.990Z,66.86
2022-10-26T20:26:43.169Z,66.77
2022-10-26T20:29:11.594Z,66.79
2022-10-26T20:31:39.830Z,66.86
2022-10-26T20:34:08.069Z,66.98
2022-10-26T20:36:36.268Z,67.00
2022-10-26T20:39:05.143Z,67.22
2022-10-26T20:41:33.725Z,67.25
2022-10-26T20:44:02.366Z,67.26
2022-10-26T20:46:30.947Z,67.34
2022-10-26T20:48:59.568Z,67.35
2022-10-26T20:52:02.732Z,67.33
2022-10-26T20:54:59.492Z,67.55
2022-10-26T20:57:30.932Z,67.56
2022-10-26T21:00:09.254Z,67.56
2022-10-26T21:02:37.989Z,67.56
2022-10-26T21:05:06.628Z,67.63
2022-10-26T21:07:34.783Z,67.76
2022-10-26T21:10:02.902Z,67.78
2022-10-26T21:12:31.120Z,67.91
2022-10-26T21:14:59.263Z,67.86
2022-10-26T21:17:27.635Z,67.95
2022-10-26T21:19:56.131Z,68.01
2022-10-26T21:22:24.424Z,68.12
2022-10-26T21:24:52.524Z,68.23
2022-10-26T21:27:20.634Z,68.35
2022-10-26T21:29:48.757Z,68.39
2022-10-26T21:32:16.905Z,68.41
2022-10-26T21:34:45.160Z,68.53
2022-10-26T21:37:13.421Z,68.53
2022-10-26T21:39:41.558Z,68.63
2022-10-26T21:42:09.713Z,68.71
2022-10-26T21:44:41.752Z,68.76
2022-10-26T21:47:11.442Z,68.75
2022-10-26T21:52:13.034Z,68.93
2022-10-26T21:54:41.488Z,68.90
2022-10-26T21:57:09.670Z,68.96
2022-10-26T21:59:37.774Z,69.07
2022-10-26T22:02:05.997Z,69.21
2022-10-26T22:04:34.390Z,69.18
2022-10-26T22:07:02.522Z,69.28
2022-10-26T22:09:30.823Z,69.32
2022-10-26T22:11:59.043Z,69.38
2022-10-26T22:14:27.129Z,69.38
2022-10-26T22:16:55.386Z,69.44
2022-10-26T22:19:23.549Z,69.45
2022-10-26T22:21:51.732Z,69.42
2022-10-26T22:24:20.047Z,69.62
2022-10-26T22:26:51.216Z,69.72
2022-10-26T22:29:19.450Z,69.65
2022-10-26T22:31:47.698Z,69.80
2022-10-26T22:34:16.685Z,69.90
2022-10-26T22:36:45.093Z,69.78
2022-10-26T22:39:13.823Z,69.77
2022-10-26T22:41:42.054Z,70.00
2022-10-26T22:44:10.476Z,69.97
2022-10-26T22:46:38.695Z,70.08
2022-10-26T22:49:06.810Z,70.09
2022-10-26T22:51:35.424Z,70.07
2022-10-26T22:54:05.285Z,70.08
2022-10-26T22:56:36.018Z,70.11
2022-10-26T22:59:05.945Z,70.13
2022-10-26T23:01:37.900Z,70.18
2022-10-26T23:04:06.088Z,70.29
2022-10-26T23:06:34.459Z,70.23
2022-10-26T23:09:02.794Z,70.28
2022-10-26T23:11:31.102Z,70.21
2022-10-26T23:14:01.006Z,70.26
2022-10-26T23:16:30.401Z,70.41
2022-10-26T23:18:59.914Z,70.45
2022-10-26T23:21:29.389Z,70.40
2022-10-26T23:23:58.209Z,70.43
2022-10-26T23:26:26.879Z,70.37
2022-10-26T23:28:55.102Z,70.38
2022-10-26T23:31:26.337Z,70.53
2022-10-26T23:33:56.405Z,70.59
2022-10-26T23:36:25.162Z,70.56
2022-10-26T23:38:53.459Z,70.62
2022-10-26T23:41:21.603Z,70.66
2022-10-26T23:43:49.988Z,70.57
2022-10-26T23:46:18.163Z,70.66
2022-10-26T23:48:46.343Z,70.66
2022-10-26T23:51:14.528Z,70.62
2022-10-26T23:53:42.799Z,70.84
2022-10-26T23:56:11.047Z,70.82
2022-10-26T23:58:39.401Z,70.85
